Apiliotis — SYVY — position and weather

sailwx.info

Track history (hours):
 
Tides and Currents Weather Stations Pressure Air Temp Water Temp Dewpoint Dewpoint Depression Visibility Wind Speed Wind Dir Waves Ship Positions

Apiliotis

Last reported at 2015-Mar-28 01:21 UTC. Time now 2015-Mar-28 12:19 UTC.
Position N 37°36' E 025°44'.

Length 79 m; draft 4.5 m.

Type: Ship. MMSI: 240438000.

Date/timePositionNaut miles runAvg speedWind from/ knotsBaromVisibWave heightAir tempDewpointWater temp
2015-Mar-28 01:21N 37°36' E 025°44'8 9.9
2015-Mar-28 00:34N 37°34' E 025°35'1010.0
2015-Mar-27 23:33N 37°32' E 025°22'5 5.0
2015-Mar-27 22:33N 37°27' E 025°19'0 0.0
2015-Mar-27 21:33N 37°27' E 025°19'0 0.0
2015-Mar-27 20:33N 37°27' E 025°19'0 0.0
2015-Mar-27 19:34N 37°27' E 025°19'0 0.0
2015-Mar-27 18:34N 37°27' E 025°19'0 0.0
2015-Mar-27 17:34N 37°27' E 025°19'0 0.0
2015-Mar-27 16:34N 37°27' E 025°19'0 0.0
2015-Mar-27 15:33N 37°27' E 025°19'0 0.0
2015-Mar-27 14:34N 37°27' E 025°19'0 0.0
2015-Mar-27 13:33N 37°27' E 025°19'0 0.0
2015-Mar-27 12:34N 37°27' E 025°19'0 0.0
2015-Mar-27 11:34N 37°27' E 025°19'0 0.0
2015-Mar-27 10:34N 37°27' E 025°19'0 0.0
2015-Mar-27 09:33N 37°27' E 025°19'0 0.0
2015-Mar-27 08:33N 37°27' E 025°19'0 0.0
2015-Mar-27 07:33N 37°27' E 025°19'0 0.0
2015-Mar-27 06:34N 37°27' E 025°19'0 0.0
2015-Mar-27 05:33N 37°27' E 025°19'0 0.0
2015-Mar-27 04:34N 37°27' E 025°19'0 0.0
2015-Mar-27 03:33N 37°27' E 025°19'0 0.0
2015-Mar-27 02:33N 37°27' E 025°19'0 0.0
2015-Mar-27 01:34N 37°27' E 025°19'0 0.0
2015-Mar-27 00:34N 37°27' E 025°19'0 0.0
2015-Mar-26 23:33N 37°27' E 025°19'0 0.0
2015-Mar-26 22:33N 37°27' E 025°19'2 2.3
2015-Mar-26 21:34N 37°28' E 025°16'10 9.9
2015-Mar-26 20:33N 37°32' E 025°05'10 9.2
2015-Mar-26 19:30N 37°36' E 024°54'46 5.6
2015-Mar-26 11:18N 37°38' E 023°56'810.8
2015-Mar-26 10:34N 37°38' E 023°46'1110.6
2015-Mar-26 09:33N 37°47' E 023°38'1111.2
2015-Mar-26 08:34N 37°51' E 023°24'11 0.5
2015-Mar-25 10:15N 37°55' E 023°11'811.8
2015-Mar-25 09:33N 37°57' E 023°22'9 0.3
2015-Mar-24 06:03N 38°01' E 023°31'0 0.0
2015-Mar-24 05:09N 38°01' E 023°31'0 0.0
2015-Mar-24 04:13N 38°01' E 023°31'0 0.0
2015-Mar-24 02:26N 38°01' E 023°31'0 0.0
2015-Mar-24 01:28N 38°01' E 023°31'0 0.0
2015-Mar-24 00:27N 38°01' E 023°31'0 0.0
2015-Mar-23 23:20N 38°01' E 023°31'0 0.0
2015-Mar-23 22:06N 38°01' E 023°31'0 0.0
2015-Mar-23 21:27N 38°01' E 023°31'0 0.0
2015-Mar-23 20:22N 38°01' E 023°31'0 0.0
2015-Mar-23 18:05N 38°01' E 023°31'0 0.0
2015-Mar-23 17:14N 38°01' E 023°31'0 0.0
2015-Mar-23 16:20N 38°01' E 023°31'0 0.0
2015-Mar-23 14:30N 38°01' E 023°31'0 0.0
2015-Mar-23 06:32N 38°01' E 023°31'3 2.7
2015-Mar-23 05:18N 37°58' E 023°33'4 5.5
2015-Mar-23 04:34N 37°55' E 023°36'10 9.6
2015-Mar-23 03:33N 37°46' E 023°41'10 9.7
2015-Mar-23 02:34N 37°39' E 023°49'4410.0
2015-Mar-22 22:07N 37°32' E 024°44'610.0
2015-Mar-22 21:30N 37°32' E 024°52'9 9.9
2015-Mar-22 20:34N 37°31' E 025°04'1010.2
2015-Mar-22 19:34N 37°28' E 025°16'3 2.9
2015-Mar-22 18:34N 37°28' E 025°20'0 0.0
2015-Mar-22 17:34N 37°28' E 025°20'0 0.0
2015-Mar-22 16:33N 37°28' E 025°20'0 0.0
2015-Mar-22 15:34N 37°28' E 025°20'0 0.0
2015-Mar-22 14:33N 37°28' E 025°20'0 0.0
2015-Mar-22 13:34N 37°28' E 025°20'0 0.0
2015-Mar-22 12:34N 37°28' E 025°20'0 0.0
2015-Mar-22 11:34N 37°28' E 025°20'7 6.8
2015-Mar-22 10:34N 37°21' E 025°17'1111.2
2015-Mar-22 09:33N 37°11' E 025°10'4 0.4
2015-Mar-21 22:14N 37°08' E 025°08'711.0
2015-Mar-21 21:34N 37°10' E 025°17'6 5.7
2015-Mar-21 20:33N 37°06' E 025°22'0 0.0
2015-Mar-21 19:34N 37°06' E 025°22'0 0.0
2015-Mar-21 18:33N 37°06' E 025°22'0 0.0
2015-Mar-21 17:34N 37°06' E 025°22'5 5.4
2015-Mar-21 16:33N 37°11' E 025°26'9 8.3
2015-Mar-21 15:27N 37°11' E 025°38'910.0
2015-Mar-21 14:31N 37°04' E 025°45'10 9.9
2015-Mar-21 13:33N 36°57' E 025°54'5 1.6
2015-Mar-21 10:33N 36°53' E 025°51'1010.0
2015-Mar-21 09:33N 36°47' E 025°41'1010.0
2015-Mar-21 08:33N 36°39' E 025°33'10 9.8
2015-Mar-21 07:33N 36°32' E 025°25'7 7.4
2015-Mar-21 06:33N 36°24' E 025°25'1 1.4
2015-Mar-21 05:33N 36°23' E 025°26'0 0.0
2015-Mar-21 04:30N 36°23' E 025°26'0 0.2
2015-Mar-21 03:29N 36°23' E 025°25'7 7.8
2015-Mar-21 02:33N 36°24' E 025°16'9 8.7
2015-Mar-21 01:33N 36°28' E 025°07'9 8.5
2015-Mar-21 00:33N 36°33' E 024°58'42 2.4
2015-Mar-20 07:24N 37°13' E 024°48'911.0
2015-Mar-20 06:33N 37°20' E 024°56'10 0.5
2015-Mar-19 09:33N 37°29' E 025°02'7 6.9
2015-Mar-19 08:33N 37°32' E 025°09'0 0.0
2015-Mar-19 07:33N 37°32' E 025°09'0 0.0
2015-Mar-19 06:33N 37°32' E 025°09'0 0.0
2015-Mar-19 05:33N 37°32' E 025°09'1 1.2
2015-Mar-19 04:33N 37°31' E 025°09'10 9.6
2015-Mar-19 03:33N 37°22' E 025°12'10 9.9
2015-Mar-19 02:34N 37°23' E 025°24'1010.0
2015-Mar-19 01:33N 37°28' E 025°34'11 8.3
2015-Mar-19 00:17N 37°30' E 025°48'  
Track history (hours):
 
Tides and Currents Weather Stations Pressure Air Temp Water Temp Dewpoint Dewpoint Depression Visibility Wind Speed Wind Dir Waves Ship Positions

Apiliotis

Last reported at 2015-Mar-28 01:21 UTC. Time now 2015-Mar-28 12:19 UTC.
Position N 37°36' E 025°44'.

Length 79 m; draft 4.5 m.

Type: Ship. MMSI: 240438000.

Date/timePositionNaut miles runAvg speedWind from/ knotsBaromVisibWave heightAir tempDewpointWater temp
2015-Mar-28 01:21N 37°36' E 025°44'8 9.9
2015-Mar-28 00:34N 37°34' E 025°35'1010.0
2015-Mar-27 23:33N 37°32' E 025°22'5 5.0
2015-Mar-27 22:33N 37°27' E 025°19'0 0.0
2015-Mar-27 21:33N 37°27' E 025°19'0 0.0
2015-Mar-27 20:33N 37°27' E 025°19'0 0.0
2015-Mar-27 19:34N 37°27' E 025°19'0 0.0
2015-Mar-27 18:34N 37°27' E 025°19'0 0.0
2015-Mar-27 17:34N 37°27' E 025°19'0 0.0
2015-Mar-27 16:34N 37°27' E 025°19'0 0.0
2015-Mar-27 15:33N 37°27' E 025°19'0 0.0
2015-Mar-27 14:34N 37°27' E 025°19'0 0.0
2015-Mar-27 13:33N 37°27' E 025°19'0 0.0
2015-Mar-27 12:34N 37°27' E 025°19'0 0.0
2015-Mar-27 11:34N 37°27' E 025°19'0 0.0
2015-Mar-27 10:34N 37°27' E 025°19'0 0.0
2015-Mar-27 09:33N 37°27' E 025°19'0 0.0
2015-Mar-27 08:33N 37°27' E 025°19'0 0.0
2015-Mar-27 07:33N 37°27' E 025°19'0 0.0
2015-Mar-27 06:34N 37°27' E 025°19'0 0.0
2015-Mar-27 05:33N 37°27' E 025°19'0 0.0
2015-Mar-27 04:34N 37°27' E 025°19'0 0.0
2015-Mar-27 03:33N 37°27' E 025°19'0 0.0
2015-Mar-27 02:33N 37°27' E 025°19'0 0.0
2015-Mar-27 01:34N 37°27' E 025°19'0 0.0
2015-Mar-27 00:34N 37°27' E 025°19'0 0.0
2015-Mar-26 23:33N 37°27' E 025°19'0 0.0
2015-Mar-26 22:33N 37°27' E 025°19'2 2.3
2015-Mar-26 21:34N 37°28' E 025°16'10 9.9
2015-Mar-26 20:33N 37°32' E 025°05'10 9.2
2015-Mar-26 19:30N 37°36' E 024°54'46 5.6
2015-Mar-26 11:18N 37°38' E 023°56'810.8
2015-Mar-26 10:34N 37°38' E 023°46'1110.6
2015-Mar-26 09:33N 37°47' E 023°38'1111.2
2015-Mar-26 08:34N 37°51' E 023°24'11 0.5
2015-Mar-25 10:15N 37°55' E 023°11'811.8
2015-Mar-25 09:33N 37°57' E 023°22'9 0.3
2015-Mar-24 06:03N 38°01' E 023°31'0 0.0
2015-Mar-24 05:09N 38°01' E 023°31'0 0.0
2015-Mar-24 04:13N 38°01' E 023°31'0 0.0
2015-Mar-24 02:26N 38°01' E 023°31'0 0.0
2015-Mar-24 01:28N 38°01' E 023°31'0 0.0
2015-Mar-24 00:27N 38°01' E 023°31'0 0.0
2015-Mar-23 23:20N 38°01' E 023°31'0 0.0
2015-Mar-23 22:06N 38°01' E 023°31'0 0.0
2015-Mar-23 21:27N 38°01' E 023°31'0 0.0
2015-Mar-23 20:22N 38°01' E 023°31'0 0.0
2015-Mar-23 18:05N 38°01' E 023°31'0 0.0
2015-Mar-23 17:14N 38°01' E 023°31'0 0.0
2015-Mar-23 16:20N 38°01' E 023°31'0 0.0
2015-Mar-23 14:30N 38°01' E 023°31'0 0.0
2015-Mar-23 06:32N 38°01' E 023°31'3 2.7
2015-Mar-23 05:18N 37°58' E 023°33'4 5.5
2015-Mar-23 04:34N 37°55' E 023°36'10 9.6
2015-Mar-23 03:33N 37°46' E 023°41'10 9.7
2015-Mar-23 02:34N 37°39' E 023°49'4410.0
2015-Mar-22 22:07N 37°32' E 024°44'610.0
2015-Mar-22 21:30N 37°32' E 024°52'9 9.9
2015-Mar-22 20:34N 37°31' E 025°04'1010.2
2015-Mar-22 19:34N 37°28' E 025°16'3 2.9
2015-Mar-22 18:34N 37°28' E 025°20'0 0.0
2015-Mar-22 17:34N 37°28' E 025°20'0 0.0
2015-Mar-22 16:33N 37°28' E 025°20'0 0.0
2015-Mar-22 15:34N 37°28' E 025°20'0 0.0
2015-Mar-22 14:33N 37°28' E 025°20'0 0.0
2015-Mar-22 13:34N 37°28' E 025°20'0 0.0
2015-Mar-22 12:34N 37°28' E 025°20'0 0.0
2015-Mar-22 11:34N 37°28' E 025°20'7 6.8
2015-Mar-22 10:34N 37°21' E 025°17'1111.2
2015-Mar-22 09:33N 37°11' E 025°10'4 0.4
2015-Mar-21 22:14N 37°08' E 025°08'711.0
2015-Mar-21 21:34N 37°10' E 025°17'6 5.7
2015-Mar-21 20:33N 37°06' E 025°22'0 0.0
2015-Mar-21 19:34N 37°06' E 025°22'0 0.0
2015-Mar-21 18:33N 37°06' E 025°22'0 0.0
2015-Mar-21 17:34N 37°06' E 025°22'5 5.4
2015-Mar-21 16:33N 37°11' E 025°26'9 8.3
2015-Mar-21 15:27N 37°11' E 025°38'910.0
2015-Mar-21 14:31N 37°04' E 025°45'10 9.9
2015-Mar-21 13:33N 36°57' E 025°54'5 1.6
2015-Mar-21 10:33N 36°53' E 025°51'1010.0
2015-Mar-21 09:33N 36°47' E 025°41'1010.0
2015-Mar-21 08:33N 36°39' E 025°33'10 9.8
2015-Mar-21 07:33N 36°32' E 025°25'7 7.4
2015-Mar-21 06:33N 36°24' E 025°25'1 1.4
2015-Mar-21 05:33N 36°23' E 025°26'0 0.0
2015-Mar-21 04:30N 36°23' E 025°26'0 0.2
2015-Mar-21 03:29N 36°23' E 025°25'7 7.8
2015-Mar-21 02:33N 36°24' E 025°16'9 8.7
2015-Mar-21 01:33N 36°28' E 025°07'9 8.5
2015-Mar-21 00:33N 36°33' E 024°58'42 2.4
2015-Mar-20 07:24N 37°13' E 024°48'911.0
2015-Mar-20 06:33N 37°20' E 024°56'10 0.5
2015-Mar-19 09:33N 37°29' E 025°02'7 6.9
2015-Mar-19 08:33N 37°32' E 025°09'0 0.0
2015-Mar-19 07:33N 37°32' E 025°09'0 0.0
2015-Mar-19 06:33N 37°32' E 025°09'0 0.0
2015-Mar-19 05:33N 37°32' E 025°09'1 1.2
2015-Mar-19 04:33N 37°31' E 025°09'10 9.6
2015-Mar-19 03:33N 37°22' E 025°12'10 9.9
2015-Mar-19 02:34N 37°23' E 025°24'1010.0
2015-Mar-19 01:33N 37°28' E 025°34'11 8.3
2015-Mar-19 00:17N 37°30' E 025°48'  

Dump ship's entire track history